Time;durP1;ratioP1;P1;durP2;ratioP2;P2;SDS_P1;SDS_P2;PMS_P1;PMS_P2;Temp;Humidity;BMP_temperature;BMP_pressure;BME280_temperature;BME280_humidity;BME280_pressure;Samples;Min_cycle;Max_cycle;Signal;HPM_P1;HPM_P2
2022/03/22 00:02:12;;;;;;;5.03;2.70;;;18.90;50.50;;;;;;4938841;29;20054;-85
2022/03/22 00:05:06;;;;;;;5.85;3.22;;;20.20;51.20;;;;;;4938992;29;20709;-85
2022/03/22 00:07:35;;;;;;;4.55;3.03;;;19.60;50.60;;;;;;4929678;29;20078;-85
2022/03/22 00:10:10;;;;;;;5.03;2.95;;;20.40;52.20;;;;;;4956108;29;20428;-86
2022/03/22 00:12:51;;;;;;;4.95;3.05;;;17.70;50.50;;;;;;4938963;29;20138;-86
2022/03/22 00:15:28;;;;;;;4.65;3.15;;;18.10;50.00;;;;;;4955679;29;20059;-86
2022/03/22 00:17:55;;;;;;;5.15;3.28;;;19.30;50.80;;;;;;4956227;29;20049;-85
2022/03/22 00:20:20;;;;;;;5.80;3.33;;;18.90;50.30;;;;;;4956423;29;20043;-87
2022/03/22 00:22:52;;;;;;;5.32;3.05;;;19.60;50.90;;;;;;4954231;29;20053;-86
2022/03/22 00:25:18;;;;;;;4.82;3.13;;;20.40;51.80;;;;;;4955588;29;20062;-86
2022/03/22 00:27:53;;;;;;;5.20;3.10;;;18.90;50.60;;;;;;4938184;29;20047;-86
2022/03/22 00:30:35;;;;;;;4.45;2.95;;;19.00;50.60;;;;;;4930468;29;20070;-85
2022/03/22 00:33:05;;;;;;;6.63;3.25;;;18.90;50.30;;;;;;4922573;29;20043;-85
2022/03/22 00:35:53;;;;;;;4.75;2.95;;;19.00;50.80;;;;;;4954137;29;20098;-85
2022/03/22 00:38:39;;;;;;;5.07;2.80;;;19.60;50.80;;;;;;4936991;29;20639;-85
2022/03/22 00:41:19;;;;;;;5.18;3.20;;;18.10;50.00;;;;;;4938662;29;20058;-85
2022/03/22 00:43:57;;;;;;;5.00;3.13;;;20.60;51.60;;;;;;4937529;29;20166;-84
2022/03/22 00:46:57;;;;;;;4.55;2.83;;;20.70;52.60;;;;;;4937621;29;20133;-86
2022/03/22 00:49:23;;;;;;;5.38;3.20;;;20.10;51.30;;;;;;4860476;29;20118;-86
2022/03/22 00:51:52;;;;;;;4.88;3.53;;;20.50;52.20;;;;;;4870984;29;20085;-86
2022/03/22 00:54:32;;;;;;;4.90;3.05;;;20.10;51.10;;;;;;4937890;29;20043;-85
2022/03/22 00:57:10;;;;;;;4.82;3.30;;;18.70;50.30;;;;;;4894332;29;20059;-86
2022/03/22 01:02:21;;;;;;;5.28;3.05;;;20.60;51.30;;;;;;4938623;29;20051;-85
2022/03/22 01:04:47;;;;;;;5.05;3.13;;;18.70;50.40;;;;;;4954111;29;20672;-86
2022/03/22 01:07:39;;;;;;;4.53;3.00;;;20.30;51.40;;;;;;4935700;29;20270;-85
2022/03/22 01:10:21;;;;;;;4.38;2.67;;;18.90;50.40;;;;;;4905172;29;20098;-85
2022/03/22 01:12:55;;;;;;;5.28;3.20;;;18.90;50.60;;;;;;4939938;29;20091;-85
2022/03/22 01:15:28;;;;;;;4.70;2.92;;;19.40;50.90;;;;;;4939697;29;20051;-84
2022/03/22 01:18:07;;;;;;;4.70;2.95;;;17.50;49.80;;;;;;4920673;29;20047;-85
2022/03/22 01:20:49;;;;;;;4.82;2.90;;;19.90;51.00;;;;;;4922597;29;20079;-85
2022/03/22 01:23:19;;;;;;;4.78;2.97;;;18.90;50.40;;;;;;4938812;29;20495;-85
2022/03/22 01:25:57;;;;;;;4.45;2.88;;;18.90;50.40;;;;;;4953414;29;20132;-85
2022/03/22 01:28:22;;;;;;;5.45;2.85;;;18.80;50.40;;;;;;4938576;29;20094;-86
2022/03/22 01:31:15;;;;;;;6.22;3.45;;;17.70;50.40;;;;;;4955795;29;20071;-85
2022/03/22 01:33:56;;;;;;;4.70;2.78;;;19.30;50.60;;;;;;4946109;29;20063;-86
2022/03/22 01:36:54;;;;;;;5.90;3.42;;;19.30;51.40;;;;;;4937372;29;20138;-84
2022/03/22 01:39:19;;;;;;;5.68;3.35;;;19.50;50.70;;;;;;4934485;29;20059;-86
2022/03/22 01:41:45;;;;;;;5.30;3.33;;;19.20;50.80;;;;;;4955335;29;20068;-85
2022/03/22 01:44:11;;;;;;;4.65;3.15;;;18.50;50.30;;;;;;4938438;29;20110;-85
2022/03/22 01:46:42;;;;;;;5.80;3.40;;;18.80;50.50;;;;;;4955339;29;20047;-85
2022/03/22 01:49:08;;;;;;;5.57;3.55;;;18.70;50.40;;;;;;4938151;29;20055;-85
2022/03/22 01:51:37;;;;;;;4.60;3.03;;;18.80;50.40;;;;;;4937282;29;20051;-85
2022/03/22 01:54:08;;;;;;;4.55;3.15;;;18.80;50.40;;;;;;4955614;29;20115;-85
2022/03/22 01:56:41;;;;;;;5.60;3.15;;;18.80;50.40;;;;;;4928474;23;20138;-85
2022/03/22 01:59:10;;;;;;;5.38;3.60;;;20.40;51.50;;;;;;4928841;29;20059;-84
2022/03/22 02:07:25;;;;;;;5.15;3.45;;;18.80;50.50;;;;;;4921307;29;20555;-85
2022/03/22 02:10:13;;;;;;;5.65;3.22;;;17.10;50.80;;;;;;4921908;29;20059;-84
2022/03/22 02:12:42;;;;;;;4.72;3.10;;;18.80;50.50;;;;;;4938106;29;20059;-85
2022/03/22 02:15:25;;;;;;;6.10;3.38;;;20.20;51.60;;;;;;4935920;29;20455;-85
2022/03/22 02:18:03;;;;;;;5.03;3.28;;;19.60;51.20;;;;;;4939912;29;20048;-84
2022/03/22 02:20:40;;;;;;;5.75;3.38;;;18.80;50.50;;;;;;4940137;29;20086;-85
2022/03/22 02:23:20;;;;;;;5.05;3.13;;;17.80;50.50;;;;;;4938240;29;20087;-85
2022/03/22 02:25:51;;;;;;;4.90;3.38;;;18.70;50.40;;;;;;4940383;29;20440;-84
2022/03/22 02:28:21;;;;;;;6.05;3.85;;;18.40;50.30;;;;;;4940117;29;20090;-85
2022/03/22 02:30:52;;;;;;;5.28;3.28;;;18.70;50.40;;;;;;4939575;29;20055;-85
2022/03/22 02:33:22;;;;;;;4.70;3.08;;;18.80;50.50;;;;;;4923556;29;20415;-85
2022/03/22 02:35:51;;;;;;;5.38;3.42;;;19.50;50.90;;;;;;4937865;29;20047;-85
2022/03/22 02:38:17;;;;;;;5.15;3.45;;;19.50;50.90;;;;;;4938908;29;20039;-86
2022/03/22 02:40:44;;;;;;;5.60;3.58;;;18.80;50.50;;;;;;4939162;29;20055;-85
2022/03/22 02:43:12;;;;;;;5.82;3.67;;;19.20;50.80;;;;;;4925566;29;20151;-85
2022/03/22 02:45:41;;;;;;;5.93;3.80;;;18.70;50.60;;;;;;4940618;29;20507;-85
2022/03/22 02:48:08;;;;;;;5.22;3.15;;;19.20;50.80;;;;;;4939986;29;20087;-85
2022/03/22 02:50:33;;;;;;;5.28;3.75;;;18.70;50.50;;;;;;4939553;29;20070;-85
2022/03/22 02:53:00;;;;;;;4.80;3.22;;;19.10;50.80;;;;;;4938184;29;20284;-84
2022/03/22 02:55:29;;;;;;;5.63;3.70;;;18.70;50.50;;;;;;4938850;29;20070;-85
2022/03/22 02:58:00;;;;;;;5.90;3.17;;;18.70;50.50;;;;;;4940896;29;20118;-85
2022/03/22 03:00:26;;;;;;;6.35;3.58;;;18.70;50.50;;;;;;4943726;29;20059;-85
2022/03/22 03:02:53;;;;;;;5.30;3.78;;;18.70;50.80;;;;;;4940900;29;20058;-85
2022/03/22 03:05:19;;;;;;;5.47;3.28;;;19.70;51.20;;;;;;4959492;29;20035;-86
2022/03/22 03:07:47;;;;;;;6.55;3.85;;;18.30;50.40;;;;;;4940593;29;20081;-86
2022/03/22 03:10:17;;;;;;;4.53;3.22;;;18.70;50.50;;;;;;4955897;29;20062;-86
2022/03/22 03:12:43;;;;;;;6.05;3.65;;;18.70;50.50;;;;;;4957406;29;20055;-86
2022/03/22 03:15:09;;;;;;;5.70;3.45;;;18.70;50.50;;;;;;4958010;29;20519;-84
2022/03/22 03:17:35;;;;;;;5.55;3.83;;;18.70;50.50;;;;;;4939976;29;20537;-85
2022/03/22 03:20:01;;;;;;;5.95;3.72;;;18.60;50.50;;;;;;4956998;28;20107;-84
2022/03/22 03:22:26;;;;;;;5.63;3.40;;;18.70;50.60;;;;;;4939706;29;20086;-85
2022/03/22 03:24:52;;;;;;;5.40;3.45;;;18.60;50.50;;;;;;4940430;29;20074;-84
2022/03/22 03:27:18;;;;;;;5.30;3.40;;;18.60;50.50;;;;;;4958997;29;20539;-84
2022/03/22 03:29:45;;;;;;;4.78;3.15;;;18.60;50.50;;;;;;4957897;29;20062;-84
2022/03/22 03:32:10;;;;;;;4.82;3.30;;;18.60;50.50;;;;;;4939484;29;20098;-84
2022/03/22 03:34:36;;;;;;;5.55;3.40;;;18.60;50.50;;;;;;4939872;29;20059;-84
2022/03/22 03:37:02;;;;;;;5.75;3.50;;;18.60;50.50;;;;;;4921741;29;20142;-85
2022/03/22 03:39:28;;;;;;;4.97;3.15;;;18.60;50.50;;;;;;4938599;29;20126;-85
2022/03/22 03:42:14;;;;;;;5.43;3.33;;;18.60;50.50;;;;;;4950193;29;20080;-85
2022/03/22 03:47:37;;;;;;;6.50;3.70;;;18.70;50.80;;;;;;4940661;29;20259;-84
2022/03/22 03:50:21;;;;;;;5.80;3.38;;;18.70;50.70;;;;;;4957055;29;20065;-85
2022/03/22 03:52:53;;;;;;;5.35;3.60;;;18.60;50.40;;;;;;4943169;29;20047;-85
2022/03/22 03:55:25;;;;;;;6.88;3.80;;;18.10;50.40;;;;;;4956516;29;20047;-85
2022/03/22 03:58:42;;;;;;;5.15;3.55;;;18.10;50.90;;;;;;4956613;29;20059;-85
2022/03/22 04:01:35;;;;;;;5.00;3.15;;;17.60;49.90;;;;;;4941150;29;20086;-85
2022/03/22 04:04:01;;;;;;;5.63;3.60;;;17.20;49.70;;;;;;4939166;29;20054;-85
2022/03/22 04:06:27;;;;;;;6.22;3.95;;;18.30;50.50;;;;;;4955860;29;20047;-84
2022/03/22 04:09:07;;;;;;;5.40;3.80;;;18.50;50.50;;;;;;4956932;29;20047;-85
2022/03/22 04:11:42;;;;;;;5.50;4.03;;;19.20;50.80;;;;;;4938334;29;20051;-85
2022/03/22 04:14:11;;;;;;;5.22;3.45;;;18.50;50.50;;;;;;4938543;29;20051;-85
2022/03/22 04:16:46;;;;;;;5.93;3.83;;;18.10;50.20;;;;;;4939927;29;20542;-85
2022/03/22 04:19:12;;;;;;;5.18;3.53;;;20.10;51.90;;;;;;4957589;29;20055;-84
2022/03/22 04:21:47;;;;;;;5.65;3.22;;;16.80;49.80;;;;;;4955187;29;20094;-84
2022/03/22 04:24:48;;;;;;;5.60;3.92;;;18.10;50.70;;;;;;4939221;29;20384;-84
2022/03/22 04:33:09;;;;;;;5.15;3.47;;;17.70;50.10;;;;;;4953916;28;20534;-85
2022/03/22 04:35:40;;;;;;;5.63;3.47;;;18.50;51.00;;;;;;4952842;29;20071;-84
2022/03/22 04:38:05;;;;;;;6.00;3.60;;;17.10;50.10;;;;;;4955474;29;20047;-85
2022/03/22 04:40:35;;;;;;;6.22;4.20;;;19.50;51.10;;;;;;4955961;29;20047;-85
2022/03/22 04:43:31;;;;;;;5.18;3.58;;;18.50;50.50;;;;;;4930627;29;20419;-85
2022/03/22 04:46:32;;;;;;;5.47;3.72;;;18.60;50.90;;;;;;4954395;29;20086;-84
2022/03/22 04:48:57;;;;;;;6.40;3.65;;;18.20;50.30;;;;;;4892441;29;20086;-85
2022/03/22 04:57:05;;;;;;;6.43;3.85;;;18.50;50.50;;;;;;4906691;29;20489;-85
2022/03/22 04:59:33;;;;;;;6.30;3.97;;;18.50;50.50;;;;;;4919091;29;20055;-85
2022/03/22 05:01:59;;;;;;;6.03;3.95;;;18.50;50.50;;;;;;4935134;29;20055;-84
2022/03/22 05:04:25;;;;;;;5.22;3.58;;;18.40;50.60;;;;;;4934934;29;20054;-85
2022/03/22 05:06:50;;;;;;;6.57;4.00;;;19.00;51.10;;;;;;4933393;29;20614;-84
2022/03/22 05:09:16;;;;;;;7.00;4.28;;;18.20;50.40;;;;;;4933250;29;20118;-85
2022/03/22 05:11:58;;;;;;;5.00;3.50;;;18.20;51.40;;;;;;4933289;29;20043;-84
2022/03/22 05:14:39;;;;;;;6.55;4.18;;;18.40;50.40;;;;;;4934282;29;20114;-85
2022/03/22 05:17:07;;;;;;;6.22;4.20;;;18.40;50.40;;;;;;4934992;29;20048;-85
2022/03/22 05:19:50;;;;;;;5.88;3.72;;;18.40;50.50;;;;;;4932792;29;20054;-85
2022/03/22 05:25:44;;;;;;;5.80;4.40;;;18.90;50.70;;;;;;4897983;29;20088;-84
2022/03/22 05:28:19;;;;;;;6.50;4.50;;;18.10;50.40;;;;;;4880034;29;20101;-84
2022/03/22 05:30:50;;;;;;;5.65;3.58;;;19.00;51.40;;;;;;4894430;29;20064;-84
2022/03/22 05:33:25;;;;;;;5.53;3.70;;;17.90;51.00;;;;;;4880825;29;20041;-84
2022/03/22 05:39:41;;;;;;;6.50;4.07;;;17.90;50.20;;;;;;4931174;29;20381;-85
2022/03/22 05:43:05;;;;;;;6.57;4.40;;;17.90;51.20;;;;;;4936715;29;20155;-84
2022/03/22 05:45:36;;;;;;;5.82;3.63;;;16.60;49.90;;;;;;4866019;29;20064;-84
2022/03/22 05:48:10;;;;;;;5.70;4.28;;;18.40;50.60;;;;;;4896681;29;20060;-84
2022/03/22 05:50:44;;;;;;;5.32;3.80;;;18.00;51.10;;;;;;4884361;29;20640;-84
2022/03/22 05:53:35;;;;;;;6.00;4.30;;;18.90;51.30;;;;;;4867384;29;20140;-84
2022/03/22 05:56:21;;;;;;;5.43;3.80;;;17.60;50.00;;;;;;4897232;29;20069;-85
2022/03/22 05:58:50;;;;;;;5.85;4.03;;;18.40;50.50;;;;;;4895686;29;20052;-84
2022/03/22 06:01:18;;;;;;;5.43;3.72;;;18.30;50.70;;;;;;4882835;29;20071;-85
2022/03/22 06:03:59;;;;;;;5.57;4.18;;;17.90;50.50;;;;;;4897685;29;20067;-84
2022/03/22 06:06:30;;;;;;;5.93;4.00;;;18.80;51.10;;;;;;4897671;29;20056;-84
2022/03/22 06:08:56;;;;;;;5.90;4.10;;;18.40;51.30;;;;;;4899154;29;20092;-85
2022/03/22 06:11:21;;;;;;;5.80;3.78;;;17.90;50.40;;;;;;4897893;29;20053;-85
2022/03/22 06:13:59;;;;;;;5.07;3.70;;;18.40;50.80;;;;;;4882489;29;20049;-84
2022/03/22 06:20:13;;;;;;;5.85;3.75;;;18.20;50.60;;;;;;4898011;29;20100;-85
2022/03/22 06:23:08;;;;;;;5.60;3.92;;;17.30;49.90;;;;;;4934282;29;20854;-86
2022/03/22 06:25:34;;;;;;;6.57;3.95;;;18.20;50.40;;;;;;4957385;29;20514;-86
2022/03/22 06:28:45;;;;;;;5.00;3.42;;;18.30;50.60;;;;;;4882186;29;20057;-85
2022/03/22 06:31:52;;;;;;;5.57;3.70;;;18.20;50.90;;;;;;4865698;29;20433;-86
2022/03/22 06:34:54;;;;;;;5.32;3.90;;;18.90;50.80;;;;;;4862542;29;20136;-85
2022/03/22 06:37:54;;;;;;;5.22;3.80;;;16.60;50.10;;;;;;4898468;29;20053;-86
2022/03/22 06:40:41;;;;;;;5.25;3.60;;;18.40;50.60;;;;;;4896231;29;20088;-86
2022/03/22 06:43:22;;;;;;;5.15;3.53;;;18.40;50.50;;;;;;4897725;29;20064;-86
2022/03/22 06:46:05;;;;;;;4.70;3.50;;;19.90;52.20;;;;;;4942460;23;20165;-86
2022/03/22 06:48:30;;;;;;;4.68;3.38;;;19.00;50.90;;;;;;4938694;29;20051;-85
2022/03/22 06:50:59;;;;;;;4.32;3.22;;;18.20;50.40;;;;;;4957113;29;20058;-86
2022/03/22 06:53:31;;;;;;;4.80;3.40;;;17.80;50.60;;;;;;4950174;29;20066;-86
2022/03/22 06:55:59;;;;;;;5.43;3.60;;;19.00;51.30;;;;;;4921134;29;20071;-86
2022/03/22 06:58:27;;;;;;;5.07;3.47;;;18.60;51.00;;;;;;4953022;29;20036;-85
2022/03/22 07:01:05;;;;;;;4.53;3.20;;;18.10;50.50;;;;;;4921502;29;20052;-85
2022/03/22 07:03:30;;;;;;;4.60;3.30;;;18.20;50.40;;;;;;4918115;29;20067;-85
2022/03/22 07:05:56;;;;;;;4.80;3.33;;;18.30;50.50;;;;;;4934958;29;20051;-85
2022/03/22 07:08:30;;;;;;;5.15;3.67;;;18.30;50.50;;;;;;4934692;29;20167;-87
2022/03/22 07:13:40;;;;;;;5.22;3.80;;;18.20;50.40;;;;;;4919845;29;20134;-87
2022/03/22 07:16:06;;;;;;;4.95;3.47;;;18.20;50.50;;;;;;4921684;29;20162;-86
2022/03/22 07:18:31;;;;;;;5.13;3.72;;;18.30;50.50;;;;;;4937790;29;20103;-87
2022/03/22 07:20:59;;;;;;;5.72;3.75;;;18.20;50.50;;;;;;4936636;29;20536;-84
2022/03/22 07:23:25;;;;;;;5.10;3.28;;;18.20;50.40;;;;;;4936503;29;20047;-85
2022/03/22 07:26:03;;;;;;;6.05;4.13;;;18.20;50.40;;;;;;4920700;29;20043;-85
2022/03/22 07:28:29;;;;;;;6.05;3.72;;;18.20;50.50;;;;;;4922008;29;20064;-85
2022/03/22 07:30:54;;;;;;;4.53;3.28;;;18.20;50.40;;;;;;4922591;29;20082;-84
2022/03/22 07:33:20;;;;;;;4.70;3.20;;;18.20;50.40;;;;;;4939057;29;20072;-84
2022/03/22 07:35:46;;;;;;;4.93;3.30;;;18.20;50.40;;;;;;4939765;29;20052;-85
2022/03/22 07:38:11;;;;;;;5.30;3.58;;;18.20;50.40;;;;;;4921070;29;20087;-85
2022/03/22 07:40:37;;;;;;;5.07;3.15;;;18.20;50.50;;;;;;4943690;29;20122;-85
2022/03/22 07:43:05;;;;;;;6.20;3.97;;;18.20;50.50;;;;;;4936939;29;20039;-85
2022/03/22 07:54:55;;;;;;;5.85;3.97;;;18.20;50.40;;;;;;4938051;29;20059;-85
2022/03/22 07:57:22;;;;;;;4.82;3.50;;;18.20;50.40;;;;;;4957932;29;20042;-85
2022/03/22 07:59:53;;;;;;;5.30;3.58;;;18.20;50.40;;;;;;4955998;29;20078;-85
2022/03/22 08:02:19;;;;;;;5.18;3.65;;;18.20;50.40;;;;;;4934983;29;20082;-84
2022/03/22 08:04:44;;;;;;;4.93;3.40;;;18.90;50.80;;;;;;4933308;29;20040;-84
2022/03/22 08:07:12;;;;;;;5.35;3.60;;;18.20;50.80;;;;;;4952530;28;20055;-87
2022/03/22 08:09:38;;;;;;;5.38;3.17;;;18.30;50.40;;;;;;4936488;29;20057;-85
2022/03/22 08:12:04;;;;;;;4.80;3.40;;;18.30;50.40;;;;;;4935303;29;20051;-85
2022/03/22 08:14:30;;;;;;;6.60;3.72;;;18.30;50.40;;;;;;4954073;29;20046;-85
2022/03/22 08:16:56;;;;;;;6.05;3.85;;;18.30;50.40;;;;;;4953744;29;20040;-85
2022/03/22 08:19:24;;;;;;;5.35;3.58;;;18.30;50.50;;;;;;4936241;29;20058;-88
2022/03/22 08:21:50;;;;;;;5.30;3.30;;;18.30;50.80;;;;;;4936541;29;20085;-85
2022/03/22 08:24:28;;;;;;;4.80;3.30;;;20.00;51.30;;;;;;4920866;29;20546;-85
2022/03/22 08:27:00;;;;;;;5.47;3.40;;;17.60;50.10;;;;;;4936422;29;20043;-85
2022/03/22 08:29:26;;;;;;;5.97;3.25;;;17.50;50.00;;;;;;4921722;29;20059;-85
2022/03/22 08:32:50;;;;;;;5.20;3.35;;;18.00;50.40;;;;;;4956025;29;20043;-86
2022/03/22 08:35:31;;;;;;;4.47;3.08;;;17.90;50.10;;;;;;4939971;29;20404;-86
2022/03/22 08:38:10;;;;;;;4.88;3.10;;;20.00;51.90;;;;;;4954846;29;20121;-86
2022/03/22 08:40:42;;;;;;;4.82;3.25;;;20.00;51.60;;;;;;4935871;29;20043;-86
2022/03/22 08:43:08;;;;;;;5.32;3.60;;;19.80;51.20;;;;;;4953438;29;20662;-86
2022/03/22 08:45:43;;;;;;;5.13;3.22;;;18.30;50.40;;;;;;4953944;29;20563;-86
2022/03/22 08:48:12;;;;;;;5.25;3.30;;;18.30;51.00;;;;;;4953049;29;20118;-85
2022/03/22 08:50:39;;;;;;;5.78;3.30;;;18.40;50.30;;;;;;4936025;29;20047;-85
2022/03/22 08:53:12;;;;;;;4.90;2.97;;;18.40;50.30;;;;;;4934263;29;20062;-86
2022/03/22 08:55:37;;;;;;;5.25;3.08;;;18.40;50.20;;;;;;4935757;29;20439;-86
2022/03/22 08:58:13;;;;;;;4.82;3.42;;;18.40;50.30;;;;;;4936084;29;20098;-86
2022/03/22 09:00:38;;;;;;;5.60;3.22;;;19.20;50.80;;;;;;4936300;29;20051;-87
2022/03/22 09:03:21;;;;;;;4.88;2.83;;;18.90;50.50;;;;;;4935375;29;20114;-86
2022/03/22 09:08:55;;;;;;;4.35;2.97;;;18.30;50.30;;;;;;4935466;29;20055;-86
2022/03/22 09:11:20;;;;;;;4.55;3.00;;;18.40;50.30;;;;;;4953615;29;20055;-84
2022/03/22 09:13:55;;;;;;;4.68;2.95;;;18.40;50.20;;;;;;4948211;29;20055;-85
2022/03/22 09:16:40;;;;;;;5.03;3.30;;;18.50;50.40;;;;;;4932021;29;20047;-84
2022/03/22 09:19:06;;;;;;;5.30;2.95;;;18.30;50.20;;;;;;4937598;29;20580;-85
2022/03/22 09:21:32;;;;;;;4.05;2.75;;;18.70;50.30;;;;;;4936087;29;20051;-86
2022/03/22 09:23:58;;;;;;;4.45;2.60;;;19.10;50.60;;;;;;4948319;29;20105;-85
2022/03/22 09:26:26;;;;;;;4.40;2.80;;;18.50;50.20;;;;;;4947849;29;20396;-85
2022/03/22 09:29:27;;;;;;;4.05;2.65;;;18.90;50.40;;;;;;4952190;29;20058;-85
2022/03/22 09:32:09;;;;;;;4.18;2.90;;;18.10;50.30;;;;;;4950268;29;20043;-84
2022/03/22 09:34:48;;;;;;;4.28;2.80;;;18.50;50.20;;;;;;4933080;29;20086;-85
2022/03/22 09:37:24;;;;;;;4.68;2.60;;;18.80;50.40;;;;;;4934161;29;20039;-85
2022/03/22 09:40:06;;;;;;;4.63;3.08;;;20.40;51.20;;;;;;4938868;29;20047;-85
2022/03/22 09:42:38;;;;;;;4.07;3.00;;;18.80;50.20;;;;;;4937815;29;20081;-85
2022/03/22 09:45:17;;;;;;;5.00;2.80;;;20.20;50.90;;;;;;4936452;29;20048;-86
2022/03/22 09:47:46;;;;;;;5.03;2.90;;;18.50;50.00;;;;;;4911400;29;20067;-85
2022/03/22 09:50:16;;;;;;;4.20;2.70;;;18.60;50.00;;;;;;4920475;29;20071;-85
2022/03/22 09:52:43;;;;;;;4.00;2.53;;;18.60;50.00;;;;;;4939591;29;20056;-85
2022/03/22 09:55:11;;;;;;;4.40;3.00;;;19.40;50.40;;;;;;4953563;29;20542;-85
2022/03/22 09:57:39;;;;;;;4.47;2.65;;;19.30;50.40;;;;;;4947773;29;20060;-85
2022/03/22 10:00:06;;;;;;;4.43;2.70;;;18.60;50.00;;;;;;4933450;29;20452;-85
2022/03/22 10:02:35;;;;;;;4.55;2.97;;;18.60;49.80;;;;;;4938162;28;20075;-88
2022/03/22 10:12:10;;;;;;;4.70;2.88;;;18.80;49.90;;;;;;5194605;23;20047;-87
2022/03/22 10:14:50;;;;;;;4.43;2.80;;;18.30;50.10;;;;;;4940739;29;20039;-87
2022/03/22 10:17:31;;;;;;;4.97;2.80;;;18.70;50.40;;;;;;4921381;29;20051;-87
2022/03/22 10:19:59;;;;;;;4.60;2.70;;;18.80;50.00;;;;;;4913569;29;20060;-89
2022/03/22 10:22:26;;;;;;;5.32;3.13;;;19.30;50.60;;;;;;4945269;29;20050;-84
2022/03/22 10:24:55;;;;;;;4.60;2.90;;;18.70;49.90;;;;;;4919631;29;20063;-85
2022/03/22 10:27:26;;;;;;;4.95;2.85;;;18.80;49.80;;;;;;4952010;29;20047;-85
2022/03/22 10:29:54;;;;;;;4.32;2.60;;;18.80;49.80;;;;;;4953706;28;20049;-85
2022/03/22 10:32:52;;;;;;;3.45;2.25;;;18.80;49.70;;;;;;4955565;29;20047;-85
2022/03/22 10:35:27;;;;;;;4.30;2.65;;;18.80;49.70;;;;;;4909513;29;20059;-86
2022/03/22 10:37:57;;;;;;;3.92;2.60;;;18.80;49.70;;;;;;4929821;29;20039;-85
2022/03/22 10:40:40;;;;;;;4.25;2.60;;;19.50;50.10;;;;;;4940636;29;20408;-86
2022/03/22 10:43:10;;;;;;;4.03;2.60;;;18.80;49.70;;;;;;4956250;29;20142;-85
2022/03/22 10:45:53;;;;;;;4.00;2.20;;;18.90;49.70;;;;;;4942735;29;20129;-87
2022/03/22 10:48:37;;;;;;;4.43;2.65;;;18.90;49.70;;;;;;4937467;29;20457;-86
2022/03/22 10:51:06;;;;;;;4.30;2.75;;;18.90;49.70;;;;;;4931081;29;20799;-86
2022/03/22 10:53:47;;;;;;;4.63;2.58;;;18.90;49.70;;;;;;4942676;29;20043;-83
2022/03/22 10:56:28;;;;;;;3.83;2.53;;;20.20;50.60;;;;;;4937999;29;20058;-86
2022/03/22 10:59:03;;;;;;;4.20;2.70;;;20.10;50.50;;;;;;4906663;29;20043;-88
2022/03/22 11:02:00;;;;;;;3.88;2.47;;;18.50;49.50;;;;;;4914197;29;20053;-85
2022/03/22 11:04:31;;;;;;;4.10;2.53;;;19.00;49.70;;;;;;4918041;29;20395;-88
2022/03/22 11:07:33;;;;;;;4.85;2.63;;;18.60;50.10;;;;;;4861559;29;20117;-91
2022/03/22 11:10:05;;;;;;;3.92;2.60;;;20.30;50.40;;;;;;4861015;29;20049;-87
2022/03/22 11:12:32;;;;;;;4.55;2.63;;;19.00;50.70;;;;;;4902080;29;20047;-87
2022/03/22 11:15:23;;;;;;;4.18;2.53;;;19.00;49.90;;;;;;4927715;29;20070;-86
2022/03/22 11:17:49;;;;;;;3.80;2.50;;;19.00;50.20;;;;;;4922456;29;20079;-86
2022/03/22 11:20:30;;;;;;;4.03;2.25;;;19.10;49.90;;;;;;4922724;29;20051;-87
2022/03/22 11:23:05;;;;;;;3.40;2.10;;;19.00;50.00;;;;;;4931994;29;20054;-87
2022/03/22 11:25:34;;;;;;;4.32;2.72;;;19.50;50.40;;;;;;4904776;29;20489;-87
2022/03/22 11:28:13;;;;;;;3.70;2.13;;;20.30;50.40;;;;;;4934551;29;20047;-86
2022/03/22 11:30:49;;;;;;;3.70;2.20;;;18.70;49.50;;;;;;4935857;29;20055;-87
2022/03/22 11:36:19;;;;;;;4.28;2.58;;;20.70;50.40;;;;;;4929067;29;20056;-87
2022/03/22 11:42:25;;;;;;;3.55;2.17;;;19.20;49.60;;;;;;4869383;29;20057;-86
2022/03/22 11:45:02;;;;;;;3.78;2.33;;;18.90;49.50;;;;;;4928948;29;20083;-88
2022/03/22 11:47:49;;;;;;;3.33;2.05;;;19.10;49.40;;;;;;4936207;29;20113;-87
2022/03/22 11:50:20;;;;;;;3.08;1.90;;;20.50;50.20;;;;;;4935146;29;20058;-88
2022/03/22 11:52:47;;;;;;;3.85;2.20;;;19.20;49.50;;;;;;4951902;29;20487;-88
2022/03/22 11:55:32;;;;;;;3.65;2.30;;;20.30;50.10;;;;;;4958118;29;20107;-89
2022/03/22 11:58:10;;;;;;;5.32;2.70;;;19.00;49.40;;;;;;4938058;29;20051;-88
2022/03/22 12:01:01;;;;;;;5.65;2.97;;;19.00;50.10;;;;;;4920628;29;20051;-88
2022/03/22 12:04:06;;;;;;;7.25;3.55;;;21.10;50.70;;;;;;4934194;29;20064;-89
2022/03/22 12:06:42;;;;;;;5.93;3.83;;;18.90;49.30;;;;;;4936902;29;20416;-90
2022/03/22 12:09:26;;;;;;;4.85;3.08;;;20.50;50.10;;;;;;4919489;29;20504;-89
2022/03/22 12:12:21;;;;;;;4.65;2.88;;;19.90;49.80;;;;;;4921785;29;20087;-96
2022/03/22 12:14:50;;;;;;;4.00;2.70;;;18.40;48.90;;;;;;4917783;29;20051;-87
2022/03/22 12:17:25;;;;;;;5.15;2.92;;;19.40;49.40;;;;;;4934302;29;20127;-87
2022/03/22 12:20:25;;;;;;;5.03;2.80;;;20.20;50.20;;;;;;4905162;29;20075;-87
2022/03/22 12:23:08;;;;;;;4.38;2.60;;;19.20;49.60;;;;;;4940802;28;20507;-87
2022/03/22 12:25:36;;;;;;;3.90;2.50;;;19.30;49.30;;;;;;4946603;29;20051;-88
2022/03/22 12:31:26;;;;;;;3.88;2.35;;;19.50;49.40;;;;;;4923185;29;20070;-88
2022/03/22 12:35:02;;;;;;;4.53;2.70;;;18.20;49.10;;;;;;4917754;29;20528;-86
2022/03/22 12:37:34;;;;;;;3.75;2.17;;;18.90;49.00;;;;;;4841697;29;20581;-87
2022/03/22 12:40:09;;;;;;;3.88;2.33;;;19.40;50.00;;;;;;5017124;23;20058;-86
2022/03/22 12:42:44;;;;;;;5.40;2.75;;;19.50;49.90;;;;;;5024314;23;1325792;-87
2022/03/22 12:45:26;;;;;;;4.53;2.85;;;19.30;49.30;;;;;;4922932;29;20051;-87
2022/03/22 12:48:30;;;;;;;3.90;2.45;;;20.70;49.90;;;;;;4953840;29;20055;-88
2022/03/22 13:05:29;;;;;;;3.72;2.22;;;19.20;49.30;;;;;;4837565;29;20506;-89
2022/03/22 13:18:39;;;;;;;3.95;2.10;;;19.50;49.40;;;;;;5114254;23;20054;-88
2022/03/22 13:21:09;;;;;;;3.72;2.17;;;19.80;49.20;;;;;;5143158;23;20088;-89
2022/03/22 13:23:35;;;;;;;4.75;2.85;;;19.60;49.10;;;;;;4927397;29;20055;-89
2022/03/22 13:26:25;;;;;;;4.57;2.40;;;21.00;49.80;;;;;;4952981;29;20062;-87
2022/03/22 13:29:10;;;;;;;3.65;2.35;;;20.00;49.30;;;;;;4953297;29;20047;-87
2022/03/22 13:35:53;;;;;;;3.60;2.20;;;19.80;49.20;;;;;;4901154;29;20122;-87
2022/03/22 13:38:18;;;;;;;4.03;2.42;;;19.90;49.20;;;;;;4972296;23;20047;-87
2022/03/22 13:54:45;;;;;;;3.97;2.28;;;19.70;49.10;;;;;;5801591;23;20134;-88
2022/03/22 14:04:49;;;;;;;3.78;2.13;;;19.10;48.70;;;;;;4942353;28;20062;-88
2022/03/22 14:33:32;;;;;;;3.13;1.88;;;19.40;48.80;;;;;;4238851;23;20110;-88
2022/03/22 14:43:34;;;;;;;3.10;1.92;;;19.50;48.80;;;;;;5189955;23;20441;-88
2022/03/22 14:46:00;;;;;;;3.30;2.08;;;19.90;49.80;;;;;;4925000;29;20734;-85
2022/03/22 14:48:25;;;;;;;3.60;2.25;;;19.90;49.10;;;;;;4931872;29;20052;-85
2022/03/22 14:50:52;;;;;;;2.97;1.83;;;19.90;49.10;;;;;;4908950;29;20082;-87
2022/03/22 14:58:48;;;;;;;3.80;2.15;;;19.90;49.10;;;;;;4899689;29;20090;-86
2022/03/22 15:01:16;;;;;;;3.88;2.10;;;19.90;49.00;;;;;;4930074;29;20103;-86
2022/03/22 15:03:54;;;;;;;3.60;1.83;;;19.90;49.10;;;;;;4912739;29;20130;-86
2022/03/22 15:06:20;;;;;;;3.60;1.90;;;19.90;49.10;;;;;;4934428;29;20051;-86
2022/03/22 15:08:47;;;;;;;3.83;2.00;;;19.90;49.10;;;;;;4902623;29;20052;-86
2022/03/22 15:11:15;;;;;;;2.85;1.65;;;19.90;49.00;;;;;;4936620;29;20039;-89
2022/03/22 15:13:51;;;;;;;3.47;1.83;;;19.90;49.10;;;;;;4919055;29;20437;-88
2022/03/22 15:16:20;;;;;;;3.83;2.20;;;19.90;49.00;;;;;;4934779;29;20054;-87
2022/03/22 15:18:48;;;;;;;3.92;2.10;;;20.90;49.60;;;;;;4937971;29;20044;-89
2022/03/22 15:31:54;;;;;;;3.10;1.98;;;18.90;48.50;;;;;;4856769;29;20077;-86
2022/03/22 15:46:20;;;;;;;9.95;3.53;;;20.60;49.40;;;;;;4783379;29;20116;-89
2022/03/22 16:09:34;;;;;;;7.60;3.00;;;20.40;49.60;;;;;;4929538;29;20083;-85
2022/03/22 16:30:10;;;;;;;5.88;3.03;;;19.80;49.20;;;;;;4828399;29;20063;-85
2022/03/22 16:44:47;;;;;;;4.95;2.53;;;20.80;49.70;;;;;;4784082;29;20054;-86
2022/03/22 17:03:10;;;;;;;5.30;2.35;;;19.40;49.50;;;;;;4926316;29;20523;-86
2022/03/22 17:05:40;;;;;;;4.65;2.28;;;20.10;50.60;;;;;;4922112;29;20054;-87
2022/03/22 17:08:43;;;;;;;3.55;2.20;;;19.90;50.10;;;;;;4882913;29;20063;-87
2022/03/22 17:11:22;;;;;;;4.10;2.40;;;20.10;50.10;;;;;;4933260;29;20058;-87
2022/03/22 17:13:51;;;;;;;4.13;2.60;;;20.10;49.80;;;;;;4919399;29;20050;-87
2022/03/22 17:17:04;;;;;;;5.68;2.90;;;20.10;50.40;;;;;;4925190;29;20058;-87
2022/03/22 17:19:50;;;;;;;6.60;2.55;;;19.60;49.20;;;;;;4933495;29;20083;-89
2022/03/22 17:22:28;;;;;;;5.35;2.67;;;20.10;49.50;;;;;;4927536;29;20526;-89
2022/03/22 17:24:54;;;;;;;4.65;2.50;;;20.00;49.70;;;;;;4947035;29;20058;-89
2022/03/22 17:27:32;;;;;;;5.43;3.15;;;20.10;49.80;;;;;;4933137;29;20086;-87
2022/03/22 17:30:01;;;;;;;5.35;2.90;;;18.00;48.90;;;;;;4932929;29;20043;-89
2022/03/22 17:33:01;;;;;;;4.38;2.58;;;20.10;50.20;;;;;;4946074;29;20646;-90